Time;durP1;ratioP1;P1;durP2;ratioP2;P2;SDS_P1;SDS_P2;PMS_P1;PMS_P2;Temp;Humidity;BMP_temperature;BMP_pressure;BME280_temperature;BME280_humidity;BME280_pressure;Samples;Min_cycle;Max_cycle;Signal;HPM_P1;HPM_P2
2024/01/05 00:01:08;;;;;;;13.35;5.47;;;4.90;99.90;;;;;;4960322;28;20126;-70
2024/01/05 00:03:33;;;;;;;19.90;5.70;;;4.80;99.90;;;;;;4969274;28;20047;-70
2024/01/05 00:05:59;;;;;;;15.68;5.15;;;4.70;99.90;;;;;;4964278;28;20032;-70
2024/01/05 00:08:25;;;;;;;15.52;5.72;;;4.70;99.90;;;;;;4965807;28;20102;-71
2024/01/05 00:10:50;;;;;;;17.17;5.70;;;4.70;99.90;;;;;;4961971;28;20035;-71
2024/01/05 00:13:16;;;;;;;21.98;6.50;;;4.60;99.90;;;;;;4967874;28;20042;-71
2024/01/05 00:15:42;;;;;;;15.52;5.00;;;4.70;99.90;;;;;;4957319;28;20043;-70
2024/01/05 00:18:08;;;;;;;11.13;4.72;;;4.70;99.90;;;;;;4968221;28;20393;-71
2024/01/05 00:20:33;;;;;;;15.95;4.80;;;4.80;99.90;;;;;;4967140;28;20042;-71
2024/01/05 00:22:59;;;;;;;14.60;4.30;;;4.80;99.90;;;;;;4969278;28;20038;-72
2024/01/05 00:25:25;;;;;;;13.95;4.88;;;4.70;99.90;;;;;;4969269;28;20028;-71
2024/01/05 00:27:51;;;;;;;13.15;5.13;;;4.60;99.90;;;;;;4958305;28;20036;-72
2024/01/05 00:30:17;;;;;;;14.15;4.30;;;4.50;99.90;;;;;;4969493;28;20465;-72
2024/01/05 00:32:43;;;;;;;15.95;4.70;;;4.50;99.90;;;;;;4966725;28;20042;-71
2024/01/05 00:35:09;;;;;;;13.85;4.00;;;4.40;99.90;;;;;;4961204;28;20110;-70
2024/01/05 00:37:35;;;;;;;11.13;3.63;;;4.40;99.90;;;;;;4968820;28;20114;-71
2024/01/05 00:40:01;;;;;;;17.20;5.22;;;4.40;99.90;;;;;;4969565;28;20101;-71
2024/01/05 00:42:26;;;;;;;13.75;4.45;;;4.50;99.90;;;;;;4964036;28;20051;-71
2024/01/05 00:44:52;;;;;;;15.38;5.22;;;4.60;99.90;;;;;;4968193;28;20468;-72
2024/01/05 00:47:17;;;;;;;14.98;3.97;;;4.70;99.90;;;;;;4971358;28;20379;-72
2024/01/05 00:49:43;;;;;;;11.82;3.78;;;4.70;99.90;;;;;;4974514;28;20031;-70
2024/01/05 00:52:09;;;;;;;10.15;2.92;;;4.60;99.90;;;;;;4967784;28;20600;-74
2024/01/05 00:54:34;;;;;;;16.02;3.60;;;4.60;99.90;;;;;;4966967;28;20142;-71
2024/01/05 00:57:00;;;;;;;8.23;2.47;;;4.60;99.90;;;;;;4972716;28;20413;-72
2024/01/05 00:59:26;;;;;;;9.85;2.88;;;4.60;99.90;;;;;;4972467;28;20167;-71
2024/01/05 01:01:53;;;;;;;9.98;2.00;;;4.70;99.90;;;;;;4947248;28;20484;-72
2024/01/05 01:04:19;;;;;;;9.23;2.20;;;4.90;99.90;;;;;;4970448;28;20508;-72
2024/01/05 01:06:44;;;;;;;8.07;1.80;;;5.10;99.90;;;;;;4966682;28;20131;-72
2024/01/05 01:09:10;;;;;;;11.80;2.08;;;5.20;99.90;;;;;;4961283;28;20561;-72
2024/01/05 01:11:35;;;;;;;9.98;1.65;;;5.30;99.90;;;;;;4972115;28;20500;-70
2024/01/05 01:14:01;;;;;;;6.43;2.00;;;5.30;99.90;;;;;;4961221;28;20142;-72
2024/01/05 01:16:27;;;;;;;10.40;1.85;;;5.30;99.90;;;;;;4962467;28;20050;-71
2024/01/05 01:18:53;;;;;;;7.40;2.33;;;5.40;99.90;;;;;;4966333;28;20428;-71
2024/01/05 01:21:18;;;;;;;12.90;2.70;;;5.50;99.90;;;;;;4974407;28;20030;-69
2024/01/05 01:23:44;;;;;;;8.68;2.30;;;5.70;99.90;;;;;;4964270;28;20140;-72
2024/01/05 01:26:10;;;;;;;11.43;2.42;;;5.60;99.90;;;;;;4956255;28;20087;-73
2024/01/05 01:28:35;;;;;;;8.02;2.50;;;5.60;99.90;;;;;;4972934;28;20516;-73
2024/01/05 01:31:01;;;;;;;8.57;3.20;;;5.50;99.90;;;;;;4963266;28;20484;-71
2024/01/05 01:33:26;;;;;;;18.65;3.83;;;5.40;99.90;;;;;;4964670;28;20031;-70
2024/01/05 01:35:52;;;;;;;10.90;4.07;;;5.40;99.90;;;;;;4960234;28;20026;-73
2024/01/05 01:38:17;;;;;;;10.00;3.28;;;5.50;99.90;;;;;;4968097;28;20382;-70
2024/01/05 01:40:47;;;;;;;9.23;3.70;;;5.40;99.90;;;;;;4958505;28;20091;-70
2024/01/05 01:43:21;;;;;;;10.85;4.22;;;5.20;99.90;;;;;;4967171;28;20043;-71
2024/01/05 01:45:47;;;;;;;12.57;3.92;;;5.20;99.90;;;;;;4970645;28;20536;-71
2024/01/05 01:48:16;;;;;;;14.15;4.43;;;5.10;99.90;;;;;;4968927;28;20107;-73
2024/01/05 01:50:42;;;;;;;10.52;3.42;;;5.00;99.90;;;;;;4961056;28;20035;-72
2024/01/05 01:53:08;;;;;;;10.00;3.75;;;5.00;99.90;;;;;;4968663;28;20054;-72
2024/01/05 01:55:34;;;;;;;11.80;3.33;;;5.00;99.90;;;;;;4971653;28;20019;-72
2024/01/05 01:58:00;;;;;;;14.45;3.50;;;4.90;99.90;;;;;;4969023;28;20030;-72
2024/01/05 02:00:25;;;;;;;13.52;4.13;;;4.90;99.90;;;;;;4968129;28;20389;-73
2024/01/05 02:02:53;;;;;;;10.23;3.05;;;4.90;99.90;;;;;;4970819;28;20074;-73
2024/01/05 02:05:19;;;;;;;7.32;2.78;;;4.90;99.90;;;;;;4961689;28;20058;-72
2024/01/05 02:07:44;;;;;;;13.27;3.10;;;4.80;99.90;;;;;;4962771;28;20043;-73
2024/01/05 02:10:10;;;;;;;17.67;3.60;;;4.80;99.90;;;;;;4969261;28;20114;-72
2024/01/05 02:12:36;;;;;;;9.85;3.97;;;4.80;99.90;;;;;;4971541;28;20026;-72
2024/01/05 02:15:02;;;;;;;10.85;3.15;;;4.90;99.90;;;;;;4963365;28;20023;-72
2024/01/05 02:17:31;;;;;;;11.10;3.47;;;4.90;99.90;;;;;;4974151;28;20065;-72
2024/01/05 02:19:57;;;;;;;10.17;3.77;;;4.90;99.90;;;;;;4980184;28;20029;-72
2024/01/05 02:22:27;;;;;;;10.80;3.20;;;4.90;99.90;;;;;;4970209;28;20303;-72
2024/01/05 02:24:53;;;;;;;13.45;4.28;;;5.00;99.90;;;;;;4978061;28;20031;-72
2024/01/05 02:27:18;;;;;;;13.02;4.13;;;5.00;99.90;;;;;;4976978;28;20030;-72
2024/01/05 02:29:44;;;;;;;11.90;4.63;;;5.00;99.90;;;;;;4961799;28;20038;-71
2024/01/05 02:32:09;;;;;;;9.95;3.75;;;5.00;99.90;;;;;;4960266;28;20039;-72
2024/01/05 02:34:35;;;;;;;17.48;4.30;;;5.00;99.90;;;;;;4969638;28;20054;-72
2024/01/05 02:37:01;;;;;;;9.27;3.97;;;4.90;99.90;;;;;;4965962;28;20039;-73
2024/01/05 02:39:26;;;;;;;11.10;3.22;;;4.90;99.90;;;;;;4960032;28;20022;-72
2024/01/05 02:41:52;;;;;;;10.00;3.40;;;4.90;99.90;;;;;;4965211;28;20066;-73
2024/01/05 02:44:17;;;;;;;7.95;3.25;;;4.90;99.90;;;;;;4970915;28;20109;-72
2024/01/05 02:46:43;;;;;;;10.10;3.78;;;4.70;99.90;;;;;;4965287;28;20035;-72
2024/01/05 02:49:09;;;;;;;8.27;3.17;;;4.70;99.90;;;;;;4959951;28;20050;-72
2024/01/05 02:51:34;;;;;;;11.35;4.22;;;4.60;99.90;;;;;;4963035;28;20101;-72
2024/01/05 02:54:00;;;;;;;9.73;3.33;;;4.60;99.90;;;;;;4967368;28;20106;-72
2024/01/05 02:56:25;;;;;;;13.98;3.03;;;4.60;99.90;;;;;;4957226;28;20034;-72
2024/01/05 02:58:53;;;;;;;6.75;3.08;;;4.60;99.90;;;;;;4961961;28;20038;-72
2024/01/05 03:01:19;;;;;;;9.88;3.55;;;4.60;99.90;;;;;;4970040;28;20464;-72
2024/01/05 03:03:47;;;;;;;14.80;3.85;;;4.60;99.90;;;;;;4958649;28;20074;-72
2024/01/05 03:06:16;;;;;;;9.60;3.45;;;4.60;99.90;;;;;;4957586;28;20116;-70
2024/01/05 03:08:46;;;;;;;5.60;2.37;;;4.60;99.90;;;;;;4966359;28;20039;-70
2024/01/05 03:11:12;;;;;;;6.30;2.53;;;4.50;99.90;;;;;;4960121;28;20913;-72
2024/01/05 03:13:37;;;;;;;9.80;3.15;;;4.50;99.90;;;;;;4965712;28;20093;-71
2024/01/05 03:16:04;;;;;;;10.68;3.45;;;4.50;99.90;;;;;;4959037;28;20054;-71
2024/01/05 03:18:30;;;;;;;9.30;3.25;;;4.50;99.90;;;;;;4964973;28;20031;-70
2024/01/05 03:20:56;;;;;;;10.48;3.33;;;4.50;99.90;;;;;;4960656;28;20034;-71
2024/01/05 03:23:21;;;;;;;7.57;2.53;;;4.50;99.90;;;;;;4968353;28;20058;-71
2024/01/05 03:25:48;;;;;;;8.38;2.95;;;4.60;99.90;;;;;;4963886;28;20038;-71
2024/01/05 03:28:14;;;;;;;12.18;2.65;;;4.60;99.90;;;;;;4965838;28;20024;-70
2024/01/05 03:30:41;;;;;;;8.63;1.95;;;4.70;99.90;;;;;;4964396;28;20436;-70
2024/01/05 03:33:07;;;;;;;9.93;1.95;;;4.60;99.90;;;;;;4958241;28;20045;-71
2024/01/05 03:35:33;;;;;;;7.90;1.58;;;4.80;99.90;;;;;;4965869;28;20031;-70
2024/01/05 03:37:59;;;;;;;4.03;1.13;;;4.90;99.90;;;;;;4966485;28;20482;-71
2024/01/05 03:40:24;;;;;;;4.40;1.00;;;5.10;99.90;;;;;;4964302;28;20035;-71
2024/01/05 03:42:50;;;;;;;8.40;1.20;;;5.30;99.90;;;;;;4966053;28;20046;-71
2024/01/05 03:45:16;;;;;;;5.90;1.10;;;5.50;99.90;;;;;;4965353;28;20121;-71
2024/01/05 03:47:41;;;;;;;2.83;1.00;;;5.70;99.90;;;;;;4960892;28;20071;-71
2024/01/05 03:50:07;;;;;;;6.55;1.40;;;5.80;99.90;;;;;;4960882;28;20099;-71
2024/01/05 03:52:33;;;;;;;4.13;0.80;;;6.00;99.90;;;;;;4963334;28;20023;-71
2024/01/05 03:54:58;;;;;;;4.53;1.00;;;6.30;99.90;;;;;;4958380;28;20049;-72
2024/01/05 03:57:24;;;;;;;3.17;0.95;;;6.40;99.90;;;;;;4960914;28;20055;-72
2024/01/05 03:59:50;;;;;;;4.68;1.00;;;6.50;99.90;;;;;;4962400;28;20483;-72
2024/01/05 04:02:16;;;;;;;5.43;1.05;;;6.70;99.90;;;;;;4962940;28;20079;-71
2024/01/05 04:04:42;;;;;;;7.95;1.63;;;6.80;99.90;;;;;;4967312;28;20038;-71
2024/01/05 04:07:08;;;;;;;5.50;1.02;;;6.90;99.90;;;;;;4963422;28;20784;-71
2024/01/05 04:09:34;;;;;;;5.10;1.10;;;7.00;99.90;;;;;;4967549;28;20062;-72
2024/01/05 04:12:00;;;;;;;3.75;0.75;;;7.10;99.90;;;;;;4963979;28;20113;-71
2024/01/05 04:14:25;;;;;;;4.68;1.00;;;7.10;99.90;;;;;;4971065;28;20042;-72
2024/01/05 04:16:51;;;;;;;3.38;1.08;;;7.30;99.90;;;;;;4963819;28;20116;-72
2024/01/05 04:19:17;;;;;;;5.72;1.50;;;7.20;99.90;;;;;;4974437;28;20093;-72
2024/01/05 04:21:44;;;;;;;3.03;0.90;;;7.30;99.90;;;;;;4970245;28;20134;-71
2024/01/05 04:24:11;;;;;;;1.63;0.70;;;7.40;99.90;;;;;;4973225;28;20101;-72
2024/01/05 04:26:36;;;;;;;4.10;0.80;;;7.40;99.90;;;;;;4968227;28;20043;-71
2024/01/05 04:29:02;;;;;;;6.72;1.00;;;7.50;99.90;;;;;;4965371;28;20023;-71
2024/01/05 04:31:27;;;;;;;3.03;1.33;;;7.50;99.90;;;;;;4968169;28;20031;-71
2024/01/05 04:33:56;;;;;;;3.00;0.95;;;7.60;99.90;;;;;;4970381;28;20031;-71
2024/01/05 04:36:22;;;;;;;3.38;0.73;;;7.50;99.90;;;;;;4961878;28;20027;-71
2024/01/05 04:38:47;;;;;;;5.22;0.95;;;7.60;99.90;;;;;;4968106;28;20022;-71
2024/01/05 04:41:15;;;;;;;5.53;1.25;;;7.60;99.90;;;;;;4963943;28;20386;-71
2024/01/05 04:43:42;;;;;;;4.25;0.88;;;7.50;99.90;;;;;;4972253;28;20037;-71
2024/01/05 04:46:08;;;;;;;5.40;1.15;;;7.50;99.90;;;;;;4962545;28;20031;-71
2024/01/05 04:48:34;;;;;;;3.28;0.80;;;7.50;99.90;;;;;;4966870;28;20031;-71
2024/01/05 04:51:01;;;;;;;5.32;1.27;;;7.60;99.90;;;;;;4964787;28;20023;-71
2024/01/05 04:53:26;;;;;;;3.30;0.77;;;7.60;99.90;;;;;;4964940;28;20081;-71
2024/01/05 04:55:52;;;;;;;5.25;1.00;;;7.60;99.90;;;;;;4967884;28;20031;-71
2024/01/05 04:58:18;;;;;;;4.75;1.30;;;7.60;99.90;;;;;;4968600;28;20051;-71
2024/01/05 05:00:44;;;;;;;3.47;1.00;;;7.60;99.90;;;;;;4959055;28;20043;-71
2024/01/05 05:03:10;;;;;;;3.08;0.95;;;7.50;99.90;;;;;;4964851;28;20018;-71
2024/01/05 05:05:36;;;;;;;2.97;0.90;;;7.60;99.90;;;;;;4963850;28;20109;-71
2024/01/05 05:08:02;;;;;;;5.70;0.90;;;7.50;99.90;;;;;;4961765;28;20031;-71
2024/01/05 05:10:28;;;;;;;3.72;0.90;;;7.50;99.90;;;;;;4968696;28;20058;-71
2024/01/05 05:12:53;;;;;;;4.03;1.13;;;7.50;99.90;;;;;;4970738;28;20491;-71
2024/01/05 05:15:19;;;;;;;3.80;0.80;;;7.50;99.90;;;;;;4964590;28;20054;-71
2024/01/05 05:17:45;;;;;;;6.95;0.95;;;7.50;99.90;;;;;;4947177;29;20130;-71
2024/01/05 05:20:11;;;;;;;5.47;0.93;;;7.50;99.90;;;;;;4949110;29;20041;-71
2024/01/05 05:22:37;;;;;;;2.85;0.90;;;7.40;99.90;;;;;;4951466;29;20035;-70
2024/01/05 05:25:02;;;;;;;6.82;0.93;;;7.40;99.90;;;;;;4941572;29;20042;-71
2024/01/05 05:27:28;;;;;;;7.25;1.08;;;7.30;99.90;;;;;;4949600;29;20024;-71
2024/01/05 05:29:53;;;;;;;2.97;0.80;;;7.30;99.90;;;;;;4950749;29;20480;-71
2024/01/05 05:32:19;;;;;;;2.85;1.08;;;7.30;99.90;;;;;;4938922;29;20119;-71
2024/01/05 05:34:45;;;;;;;5.68;0.77;;;7.20;99.90;;;;;;4944699;29;20051;-71
2024/01/05 05:37:10;;;;;;;3.35;0.80;;;7.20;99.90;;;;;;4950830;29;20098;-71
2024/01/05 05:39:36;;;;;;;3.60;0.93;;;7.20;99.90;;;;;;4944018;28;20104;-71
2024/01/05 05:42:02;;;;;;;2.72;0.65;;;7.20;99.90;;;;;;4943239;29;20035;-71
2024/01/05 05:44:28;;;;;;;4.47;0.82;;;7.20;99.90;;;;;;4950842;29;20034;-71
2024/01/05 05:46:54;;;;;;;3.88;0.85;;;7.20;99.90;;;;;;4952167;29;20481;-72
2024/01/05 05:49:20;;;;;;;6.88;1.30;;;7.20;99.90;;;;;;4943548;29;20036;-71
2024/01/05 05:51:46;;;;;;;2.00;0.75;;;7.30;99.90;;;;;;4945263;29;20031;-71
2024/01/05 05:54:11;;;;;;;8.55;0.70;;;7.30;99.90;;;;;;4947128;29;20032;-71
2024/01/05 05:56:39;;;;;;;1.85;0.80;;;7.30;99.90;;;;;;4951862;29;20032;-71
2024/01/05 05:59:04;;;;;;;6.13;0.70;;;7.40;99.90;;;;;;4944783;29;20059;-71
2024/01/05 06:01:30;;;;;;;3.90;0.93;;;7.40;99.90;;;;;;4947646;29;20054;-71
2024/01/05 06:03:55;;;;;;;1.83;0.70;;;7.30;99.90;;;;;;4947183;29;20035;-71
2024/01/05 06:06:23;;;;;;;6.30;1.15;;;7.30;99.90;;;;;;4939471;29;20035;-71
2024/01/05 06:08:51;;;;;;;2.10;0.70;;;7.30;99.90;;;;;;4923022;29;20042;-71
2024/01/05 06:11:18;;;;;;;3.08;0.88;;;7.30;99.90;;;;;;4944452;29;20035;-71
2024/01/05 06:13:47;;;;;;;4.70;1.00;;;7.30;99.90;;;;;;4951656;29;20075;-71
2024/01/05 06:16:14;;;;;;;3.85;0.90;;;7.20;99.90;;;;;;4945404;28;20150;-71
2024/01/05 06:18:40;;;;;;;2.75;0.82;;;7.30;99.90;;;;;;4969874;28;20031;-70
2024/01/05 06:21:05;;;;;;;3.85;1.15;;;7.40;99.90;;;;;;4961633;28;20039;-71
2024/01/05 06:23:31;;;;;;;3.78;0.98;;;7.30;99.90;;;;;;4962978;28;20374;-70
2024/01/05 06:25:57;;;;;;;4.68;1.08;;;7.30;99.90;;;;;;4961100;28;20121;-71
2024/01/05 06:28:23;;;;;;;3.42;1.02;;;7.30;99.90;;;;;;4968994;28;20106;-70
2024/01/05 06:30:49;;;;;;;5.40;1.23;;;7.30;99.90;;;;;;4970164;28;20022;-70
2024/01/05 06:33:14;;;;;;;3.40;0.70;;;7.30;99.90;;;;;;4963662;28;20472;-70
2024/01/05 06:35:40;;;;;;;7.13;1.08;;;7.20;99.90;;;;;;4968059;28;20022;-70
2024/01/05 06:38:06;;;;;;;4.25;1.10;;;7.20;99.90;;;;;;4966707;28;20046;-70
2024/01/05 06:40:31;;;;;;;6.47;1.45;;;7.20;99.90;;;;;;4957797;28;20035;-70
2024/01/05 06:42:57;;;;;;;3.35;1.08;;;7.20;99.90;;;;;;4962350;28;20123;-70
2024/01/05 06:45:23;;;;;;;6.30;1.60;;;7.10;99.90;;;;;;4969988;28;20023;-70
2024/01/05 06:47:49;;;;;;;4.80;1.17;;;7.00;99.90;;;;;;4965905;28;20481;-71
2024/01/05 06:50:15;;;;;;;3.03;0.82;;;7.00;99.90;;;;;;4966899;28;20030;-71
2024/01/05 06:52:41;;;;;;;4.93;0.98;;;7.00;99.90;;;;;;4964849;28;20086;-70
2024/01/05 06:55:07;;;;;;;4.75;0.90;;;7.00;99.90;;;;;;4970741;28;20110;-71
2024/01/05 06:57:35;;;;;;;3.65;0.98;;;7.00;99.90;;;;;;4961105;28;20023;-72
2024/01/05 07:00:05;;;;;;;5.68;0.90;;;6.90;99.90;;;;;;4961376;28;20030;-71
2024/01/05 07:02:31;;;;;;;3.10;1.02;;;6.90;99.90;;;;;;4968059;28;20134;-70
2024/01/05 07:04:57;;;;;;;2.60;0.73;;;6.90;99.90;;;;;;4968652;28;20495;-71
2024/01/05 07:07:23;;;;;;;6.47;1.17;;;6.90;99.90;;;;;;4962920;28;20026;-71
2024/01/05 07:09:48;;;;;;;5.30;0.90;;;6.80;99.90;;;;;;4966112;28;20088;-71
2024/01/05 07:12:14;;;;;;;5.85;0.77;;;6.70;99.90;;;;;;4967590;28;20039;-71
2024/01/05 07:14:40;;;;;;;8.07;1.10;;;6.70;99.90;;;;;;4964860;28;20474;-71
2024/01/05 07:17:05;;;;;;;3.33;0.98;;;6.70;99.90;;;;;;4961819;28;20050;-71
2024/01/05 07:19:31;;;;;;;3.58;1.27;;;6.70;99.90;;;;;;4971621;28;20038;-71
2024/01/05 07:21:56;;;;;;;7.97;1.23;;;6.80;99.90;;;;;;4964100;28;20027;-71
2024/01/05 07:24:22;;;;;;;4.20;1.10;;;6.80;99.90;;;;;;4962274;28;20046;-71
2024/01/05 07:26:48;;;;;;;3.85;1.08;;;6.80;99.90;;;;;;4965691;28;20082;-73
2024/01/05 07:29:14;;;;;;;3.72;1.15;;;6.80;99.90;;;;;;4970522;28;20027;-73
2024/01/05 07:31:40;;;;;;;4.53;1.33;;;6.80;99.90;;;;;;4960665;28;20030;-73
2024/01/05 07:34:07;;;;;;;3.90;1.10;;;6.80;99.90;;;;;;4958311;28;20019;-72
2024/01/05 07:36:32;;;;;;;4.28;1.02;;;6.80;99.90;;;;;;4960146;28;20455;-73
2024/01/05 07:39:01;;;;;;;3.05;1.00;;;6.90;99.90;;;;;;4972496;28;20110;-73
2024/01/05 07:41:27;;;;;;;4.97;1.40;;;6.90;99.90;;;;;;4966172;28;20031;-73
2024/01/05 07:43:52;;;;;;;2.60;0.90;;;6.90;99.90;;;;;;4973623;28;20033;-72
2024/01/05 07:46:19;;;;;;;3.72;1.30;;;7.00;99.90;;;;;;4973183;28;20034;-73
2024/01/05 07:48:46;;;;;;;3.88;1.23;;;7.00;99.90;;;;;;4967746;28;20046;-73
2024/01/05 07:51:12;;;;;;;4.20;1.27;;;7.00;99.90;;;;;;4966319;28;20298;-73
2024/01/05 07:53:38;;;;;;;4.00;0.95;;;7.00;99.90;;;;;;4971199;28;20026;-73
2024/01/05 07:56:05;;;;;;;3.20;1.00;;;7.00;99.90;;;;;;4968290;28;20032;-72
2024/01/05 07:58:30;;;;;;;4.47;1.23;;;7.00;99.90;;;;;;4969290;28;20106;-72
2024/01/05 08:00:56;;;;;;;4.10;1.00;;;7.00;99.90;;;;;;4968248;28;20101;-72
2024/01/05 08:03:21;;;;;;;10.63;4.00;;;7.00;99.90;;;;;;4973234;28;20059;-72
2024/01/05 08:05:47;;;;;;;11.60;4.20;;;7.00;99.90;;;;;;4962955;28;20035;-72
2024/01/05 08:08:13;;;;;;;12.63;4.85;;;6.90;99.90;;;;;;4963925;28;20056;-73
2024/01/05 08:10:39;;;;;;;9.68;3.55;;;6.90;99.90;;;;;;4968267;28;20031;-73
2024/01/05 08:13:05;;;;;;;9.40;4.53;;;6.80;99.90;;;;;;4961896;28;20037;-72
2024/01/05 08:15:31;;;;;;;14.68;6.32;;;6.70;99.90;;;;;;4966328;28;20042;-72
2024/01/05 08:17:57;;;;;;;12.02;4.60;;;6.60;99.90;;;;;;4970177;28;20055;-72
2024/01/05 08:20:22;;;;;;;11.65;4.80;;;6.50;99.90;;;;;;4969496;28;20036;-73
2024/01/05 08:22:48;;;;;;;10.57;5.20;;;6.40;99.90;;;;;;4965101;28;20091;-73
2024/01/05 08:25:14;;;;;;;12.15;4.57;;;6.40;99.90;;;;;;4965393;28;20038;-72
2024/01/05 08:27:40;;;;;;;5.88;3.35;;;6.40;99.90;;;;;;4962197;28;20046;-72
2024/01/05 08:30:07;;;;;;;11.63;4.25;;;6.30;99.90;;;;;;4956857;28;20082;-72
2024/01/05 08:32:33;;;;;;;6.63;2.83;;;6.40;99.90;;;;;;4968998;28;20031;-71
2024/01/05 08:34:59;;;;;;;7.35;2.75;;;6.40;99.90;;;;;;4964801;28;20023;-71
2024/01/05 08:37:25;;;;;;;6.72;2.70;;;6.50;99.90;;;;;;4961387;28;20037;-72
2024/01/05 08:39:50;;;;;;;7.53;2.80;;;6.50;99.90;;;;;;4967180;28;20027;-72
2024/01/05 08:42:16;;;;;;;8.02;2.72;;;6.50;99.90;;;;;;4971235;28;20388;-72
2024/01/05 08:44:42;;;;;;;7.20;3.00;;;6.60;99.90;;;;;;4964225;28;20493;-72
2024/01/05 08:47:07;;;;;;;7.30;3.17;;;6.70;99.90;;;;;;4968255;28;20483;-72
2024/01/05 08:49:34;;;;;;;13.48;3.15;;;6.80;99.90;;;;;;4969127;28;20481;-72
2024/01/05 08:52:00;;;;;;;6.43;2.83;;;6.90;99.90;;;;;;4969871;28;20030;-72
2024/01/05 08:54:26;;;;;;;11.30;3.38;;;7.00;99.90;;;;;;4960112;28;20106;-72
2024/01/05 08:56:52;;;;;;;8.77;3.05;;;7.00;99.90;;;;;;4965469;28;20031;-72
2024/01/05 08:59:18;;;;;;;5.78;3.00;;;7.00;99.90;;;;;;4963594;28;20435;-71
2024/01/05 09:01:43;;;;;;;10.98;3.55;;;6.90;99.90;;;;;;4975144;28;20089;-72
2024/01/05 09:04:10;;;;;;;7.00;2.92;;;6.80;99.90;;;;;;4959383;28;20066;-72
2024/01/05 09:06:39;;;;;;;8.63;2.85;;;6.80;99.90;;;;;;4964491;28;20505;-72
2024/01/05 09:09:05;;;;;;;9.15;3.28;;;6.70;99.90;;;;;;4965372;28;20030;-72
2024/01/05 09:11:31;;;;;;;6.72;2.97;;;6.60;99.90;;;;;;4969173;28;20034;-72
2024/01/05 09:13:56;;;;;;;9.80;3.47;;;6.50;99.90;;;;;;4965010;28;20447;-72
2024/01/05 09:16:22;;;;;;;5.90;2.97;;;6.30;99.90;;;;;;4963457;28;20083;-72
2024/01/05 09:18:49;;;;;;;7.30;3.30;;;6.30;99.90;;;;;;4969658;28;20090;-72
2024/01/05 09:21:15;;;;;;;6.90;2.90;;;6.20;99.90;;;;;;4967652;28;20539;-71
2024/01/05 09:23:41;;;;;;;6.32;2.95;;;6.20;99.90;;;;;;4964787;28;20110;-70
2024/01/05 09:26:15;;;;;;;6.65;3.50;;;6.10;99.90;;;;;;4961758;28;20225;-71
2024/01/05 09:28:42;;;;;;;7.75;3.42;;;6.10;99.90;;;;;;4972112;28;20123;-71
2024/01/05 09:31:08;;;;;;;12.30;3.78;;;6.00;99.90;;;;;;4968286;28;20027;-72
2024/01/05 09:33:33;;;;;;;9.70;3.53;;;6.00;99.90;;;;;;4965938;28;20472;-71
2024/01/05 09:35:59;;;;;;;9.15;3.65;;;6.00;99.90;;;;;;4968922;28;20031;-71
2024/01/05 09:38:25;;;;;;;6.68;3.45;;;6.00;99.90;;;;;;4959684;28;20035;-71
2024/01/05 09:40:52;;;;;;;9.48;3.22;;;6.00;99.90;;;;;;4959638;28;20031;-71
2024/01/05 09:43:21;;;;;;;6.38;2.70;;;6.00;99.90;;;;;;4972005;28;20038;-72
2024/01/05 09:45:50;;;;;;;7.93;2.90;;;6.10;99.90;;;;;;4973045;28;20439;-72
2024/01/05 09:48:19;;;;;;;15.43;4.03;;;6.20;99.90;;;;;;4962870;28;20081;-71
2024/01/05 09:50:51;;;;;;;6.43;1.50;;;6.30;99.90;;;;;;4960937;28;20035;-71
2024/01/05 09:53:17;;;;;;;5.10;1.67;;;6.50;99.90;;;;;;4971704;28;20023;-71
2024/01/05 09:55:53;;;;;;;4.90;1.40;;;6.70;99.90;;;;;;4971023;28;20085;-71
2024/01/05 09:58:19;;;;;;;4.53;1.88;;;7.00;99.90;;;;;;4962343;28;20380;-72
2024/01/05 10:00:49;;;;;;;5.18;1.63;;;7.20;99.90;;;;;;4960510;28;20031;-71
2024/01/05 10:03:23;;;;;;;4.18;1.35;;;7.30;99.90;;;;;;4965859;28;20365;-71
2024/01/05 10:05:53;;;;;;;2.40;1.00;;;7.60;99.90;;;;;;4964956;28;20109;-71
2024/01/05 10:08:19;;;;;;;7.57;1.60;;;7.70;99.90;;;;;;4960418;28;20062;-71
2024/01/05 10:10:49;;;;;;;6.15;1.95;;;7.80;99.90;;;;;;4969281;28;20035;-71
2024/01/05 10:13:16;;;;;;;5.20;1.40;;;8.00;99.90;;;;;;4965646;28;20042;-71
2024/01/05 10:16:04;;;;;;;5.28;1.38;;;8.00;99.90;;;;;;4961895;28;20031;-71
2024/01/05 10:18:30;;;;;;;3.85;1.45;;;8.10;99.90;;;;;;4964408;28;20034;-72
2024/01/05 10:20:57;;;;;;;4.10;1.70;;;8.40;99.90;;;;;;4970219;28;20031;-72
2024/01/05 10:23:23;;;;;;;5.10;1.42;;;8.30;99.90;;;;;;4967996;28;20105;-72
2024/01/05 10:25:51;;;;;;;3.83;1.50;;;8.40;99.90;;;;;;4970449;28;20509;-72
2024/01/05 10:28:23;;;;;;;4.63;1.40;;;8.60;99.90;;;;;;4959024;28;20027;-72
2024/01/05 10:30:49;;;;;;;8.82;2.08;;;;;;;;;;4962227;28;20031;-72
2024/01/05 10:33:19;;;;;;;6.75;1.85;;;8.80;99.90;;;;;;4962816;28;20024;-71
2024/01/05 10:35:45;;;;;;;3.85;1.40;;;8.80;99.90;;;;;;4966310;28;20031;-72
2024/01/05 10:38:13;;;;;;;5.68;1.42;;;8.80;99.90;;;;;;4941183;28;20621;-72
2024/01/05 10:40:40;;;;;;;5.70;1.55;;;8.90;99.90;;;;;;4970402;28;20050;-70
2024/01/05 10:43:13;;;;;;;4.35;1.40;;;8.90;99.90;;;;;;4974251;28;20055;-70
2024/01/05 10:45:41;;;;;;;4.35;1.40;;;9.10;99.90;;;;;;4975881;28;20031;-70
2024/01/05 10:48:09;;;;;;;5.18;1.45;;;9.20;99.90;;;;;;4981278;28;20011;-70
2024/01/05 10:50:41;;;;;;;7.15;1.70;;;9.30;99.90;;;;;;4967440;28;20108;-70
2024/01/05 10:53:10;;;;;;;4.18;1.50;;;9.30;99.90;;;;;;4975310;28;20034;-71
2024/01/05 10:55:40;;;;;;;3.72;1.60;;;9.50;99.90;;;;;;4958711;28;20038;-71
2024/01/05 10:58:07;;;;;;;9.35;1.30;;;;;;;;;;4968023;28;20031;-72
2024/01/05 11:00:34;;;;;;;9.68;3.90;;;;;;;;;;4960024;28;20495;-72
2024/01/05 11:03:17;;;;;;;8.48;3.80;;;9.80;99.90;;;;;;4959358;28;20035;-71
2024/01/05 11:05:44;;;;;;;11.77;3.38;;;;;;;;;;4961070;28;20038;-71
2024/01/05 11:08:16;;;;;;;7.18;3.25;;;;;;;;;;4961273;28;20027;-71
2024/01/05 11:11:14;;;;;;;7.72;3.10;;;;;;;;;;4967849;28;20037;-71
2024/01/05 11:14:06;;;;;;;9.07;3.58;;;;;;;;;;4928600;28;20134;-70
2024/01/05 11:16:44;;;;;;;6.43;3.25;;;;;;;;;;4961390;28;20469;-73
2024/01/05 11:19:28;;;;;;;8.60;3.55;;;;;;;;;;4961426;28;20058;-72
2024/01/05 11:21:57;;;;;;;6.22;2.70;;;;;;;;;;4965807;28;20031;-73
2024/01/05 11:24:24;;;;;;;8.82;2.95;;;;;;;;;;4961857;28;20421;-73
2024/01/05 11:26:50;;;;;;;9.13;3.05;;;;;;;;;;4964502;28;20023;-73
2024/01/05 11:29:34;;;;;;;10.52;3.00;;;;;;;;;;4969425;28;20090;-73
2024/01/05 11:32:00;;;;;;;8.85;3.70;;;;;;;;;;4956592;28;20038;-73
2024/01/05 11:34:34;;;;;;;8.02;3.50;;;;;;;;;;4959963;28;20027;-71
2024/01/05 11:37:00;;;;;;;9.25;3.40;;;;;;;;;;4959010;28;20064;-70
2024/01/05 11:39:44;;;;;;;5.80;1.85;;;;;;;;;;4971769;28;20025;-70
2024/01/05 11:42:27;;;;;;;8.15;2.72;;;;;;;;;;4961156;28;20196;-70
2024/01/05 11:44:53;;;;;;;6.32;2.10;;;;;;;;;;4966382;28;20038;-71
2024/01/05 11:47:38;;;;;;;6.38;3.10;;;;;;;;;;4970475;28;20480;-71
2024/01/05 11:50:23;;;;;;;6.50;2.47;;;;;;;;;;4956878;28;20553;-71
2024/01/05 11:53:06;;;;;;;6.55;2.63;;;;;;;;;;4966618;28;20023;-70
2024/01/05 11:55:39;;;;;;;4.25;1.65;;;;;;;;;;4969489;28;20468;-68
2024/01/05 11:58:05;;;;;;;4.63;1.42;;;;;;;;;;4955312;28;21201;-71
2024/01/05 12:00:31;;;;;;;5.45;2.33;;;;;;;;;;4959459;28;20041;-73
2024/01/05 12:03:03;;;;;;;6.20;2.47;;;;;;;;;;4968182;28;20031;-72
2024/01/05 12:05:29;;;;;;;8.18;2.67;;;;;;;;;;4959934;28;20023;-71
2024/01/05 12:07:56;;;;;;;7.05;2.58;;;;;;;;;;4956718;28;20030;-70
2024/01/05 12:10:27;;;;;;;8.38;2.97;;;;;;;;;;4960956;28;20102;-71
2024/01/05 12:12:53;;;;;;;9.35;2.90;;;;;;;;;;4956846;28;20027;-70
2024/01/05 12:15:20;;;;;;;15.45;5.32;;;;;;;;;;4966631;28;20019;-70
2024/01/05 12:17:47;;;;;;;12.15;6.57;;;;;;;;;;4966710;28;20095;-76
2024/01/05 12:20:13;;;;;;;6.10;3.47;;;;;;;;;;4966710;28;20835;-74
2024/01/05 12:22:40;;;;;;;7.15;2.70;;;;;;;;;;4956757;28;20029;-74
2024/01/05 12:25:06;;;;;;;10.50;3.42;;;;;;;;;;4960676;28;20034;-71
2024/01/05 12:27:36;;;;;;;10.10;2.67;;;;;;;;;;4960567;28;20031;-72
2024/01/05 12:30:02;;;;;;;8.00;2.28;;;;;;;;;;4962471;28;20526;-72
2024/01/05 12:32:31;;;;;;;4.57;2.10;;;;;;;;;;4966674;28;20038;-72
2024/01/05 12:34:57;;;;;;;8.27;2.30;;;;;;;;;;4973008;28;20023;-72
2024/01/05 12:37:23;;;;;;;6.78;1.67;;;;;;;;;;4963580;28;20500;-72
2024/01/05 12:39:49;;;;;;;4.85;1.45;;;;;;;;;;4966447;28;20019;-71
2024/01/05 12:42:15;;;;;;;4.97;1.83;;;;;;;;;;4964151;28;20804;-72
2024/01/05 12:44:42;;;;;;;5.72;1.98;;;;;;;;;;4965292;28;20380;-72
2024/01/05 12:47:08;;;;;;;3.60;1.33;;;;;;;;;;4963270;28;20441;-72
2024/01/05 12:49:38;;;;;;;3.40;1.90;;;;;;;;;;4964560;28;20027;-72
2024/01/05 12:52:10;;;;;;;3.92;1.63;;;;;;;;;;4947885;28;20409;-72
2024/01/05 12:54:42;;;;;;;4.82;1.67;;;;;;;;;;4964982;28;20023;-72
2024/01/05 12:57:09;;;;;;;6.43;2.00;;;;;;;;;;4962433;28;20023;-72
2024/01/05 12:59:36;;;;;;;4.93;1.58;;;;;;;;;;4968635;28;20033;-71
2024/01/05 13:02:03;;;;;;;5.85;1.67;;;;;;;;;;4961072;28;20032;-72
2024/01/05 13:04:34;;;;;;;5.13;2.10;;;;;;;;;;4963197;28;20361;-72
2024/01/05 13:07:00;;;;;;;7.78;2.30;;;;;;;;;;4962729;28;20027;-72
2024/01/05 13:09:26;;;;;;;5.82;1.60;;;;;;;;;;4960944;28;20024;-72